createdAt,value
2023-05-10T00:03:52.452Z,13.7
2023-05-10T00:09:31.616Z,13.6
2023-05-10T00:15:08.783Z,13.4
2023-05-10T00:20:44.417Z,13.4
2023-05-10T00:26:20.080Z,13.3
2023-05-10T00:31:55.513Z,13.2
2023-05-10T00:37:32.199Z,13.1
2023-05-10T00:43:08.002Z,13.1
2023-05-10T00:48:45.780Z,13
2023-05-10T00:54:21.130Z,13.1
2023-05-10T00:59:59.183Z,13.2
2023-05-10T01:05:35.202Z,13.2
2023-05-10T01:11:11.312Z,13.2
2023-05-10T01:16:48.145Z,13.1
2023-05-10T01:22:23.047Z,13
2023-05-10T01:27:59.259Z,13
2023-05-10T01:33:36.692Z,12.9
2023-05-10T01:39:12.002Z,12.9
2023-05-10T01:44:47.806Z,13.1
2023-05-10T01:50:29.301Z,13.2
2023-05-10T01:56:05.777Z,13.4
2023-05-10T02:01:44.037Z,13.4
2023-05-10T02:12:55.736Z,13.3
2023-05-10T02:18:32.009Z,13.2
2023-05-10T02:24:10.703Z,13.2
2023-05-10T02:29:47.558Z,13.2
2023-05-10T02:35:24.425Z,13.2
2023-05-10T02:41:00.335Z,13.2
2023-05-10T02:46:36.074Z,13
2023-05-10T02:52:12.465Z,12.8
2023-05-10T02:57:48.357Z,12.7
2023-05-10T03:03:23.782Z,12.7
2023-05-10T03:08:59.942Z,12.7
2023-05-10T03:14:37.230Z,12.6
2023-05-10T03:20:15.009Z,12.5
2023-05-10T03:25:53.180Z,12.4
2023-05-10T03:31:28.801Z,12.4
2023-05-10T03:37:05.151Z,12.3
2023-05-10T03:42:41.587Z,12.2
2023-05-10T03:48:20.025Z,12.2
2023-05-10T03:53:56.908Z,12.2
2023-05-10T03:59:33.037Z,12.2
2023-05-10T04:05:09.238Z,12.4
2023-05-10T04:10:45.132Z,12.5
2023-05-10T04:16:20.655Z,12.4
2023-05-10T04:21:59.370Z,12.3
2023-05-10T04:27:35.601Z,12.3
2023-05-10T04:33:11.213Z,12.3
2023-05-10T04:38:47.065Z,11.1
2023-05-10T04:44:22.437Z,10.4
2023-05-10T04:49:59.005Z,10
2023-05-10T04:55:35.460Z,9.9
2023-05-10T05:01:10.952Z,9.9
2023-05-10T05:06:47.082Z,9.9
2023-05-10T05:12:22.586Z,10
2023-05-10T05:17:57.430Z,10.2
2023-05-10T05:23:33.947Z,10.3
2023-05-10T05:29:10.769Z,10.6
2023-05-10T05:34:46.700Z,11
2023-05-10T05:40:22.419Z,11.2
2023-05-10T05:45:58.511Z,11.3
2023-05-10T05:51:36.808Z,11.3
2023-05-10T05:57:13.413Z,11.3
2023-05-10T06:02:52.653Z,11.2
2023-05-10T06:08:29.635Z,11.3
2023-05-10T06:14:17.022Z,11.3
2023-05-10T06:19:54.518Z,11.2
2023-05-10T06:25:31.832Z,11
2023-05-10T06:31:11.676Z,11.2
2023-05-10T06:36:49.581Z,11.3
2023-05-10T06:42:25.293Z,12
2023-05-10T06:48:02.186Z,12.1
2023-05-10T06:53:40.008Z,12.7
2023-05-10T06:59:15.551Z,12.5
2023-05-10T07:04:52.575Z,12
2023-05-10T07:10:30.720Z,12.1
2023-05-10T07:16:05.976Z,12.4
2023-05-10T07:21:46.179Z,12.4
2023-05-10T07:27:21.829Z,12
2023-05-10T07:32:57.114Z,12.5
2023-05-10T07:38:32.862Z,13.9
2023-05-10T07:44:09.622Z,14.3
2023-05-10T07:49:45.952Z,14.8
2023-05-10T07:55:23.544Z,15.2
2023-05-10T08:01:00.337Z,15.5
2023-05-10T08:06:36.815Z,15.3
2023-05-10T08:12:12.083Z,15
2023-05-10T08:17:48.046Z,16.2
2023-05-10T08:23:24.356Z,16.2
2023-05-10T08:28:59.672Z,15.8
2023-05-10T08:34:36.217Z,16.1
2023-05-10T08:40:12.877Z,16.5
2023-05-10T08:45:48.217Z,16.9
2023-05-10T08:51:29.003Z,15.9
2023-05-10T08:57:04.626Z,15.6
2023-05-10T09:02:40.653Z,17.2
2023-05-10T09:08:18.239Z,18.2
2023-05-10T09:13:54.876Z,15.4
2023-05-10T09:19:36.622Z,13.9
2023-05-10T09:25:11.847Z,13.4
2023-05-10T09:30:47.275Z,13
2023-05-10T09:36:22.579Z,14.4
2023-05-10T09:41:58.591Z,15.8
2023-05-10T09:47:34.932Z,16.8
2023-05-10T09:53:10.874Z,17.9
2023-05-10T09:58:46.837Z,16.7
2023-05-10T10:04:23.003Z,15.8
2023-05-10T10:09:59.605Z,17.5
2023-05-10T10:15:38.284Z,16.6
2023-05-10T10:21:15.588Z,17
2023-05-10T10:26:53.800Z,17.2
2023-05-10T10:32:35.457Z,18.6
2023-05-10T10:38:11.465Z,18.2
2023-05-10T10:43:47.731Z,18.5
2023-05-10T10:49:24.595Z,18.6
2023-05-10T10:54:59.019Z,18.2
2023-05-10T11:00:34.620Z,16.7
2023-05-10T11:06:11.910Z,17
2023-05-10T11:11:47.747Z,16.8
2023-05-10T11:17:26.664Z,18.4
2023-05-10T11:23:06.209Z,17.3
2023-05-10T11:28:42.134Z,17.8
2023-05-10T11:34:19.172Z,17.4
2023-05-10T11:39:56.317Z,17.7
2023-05-10T11:45:32.720Z,17.9
2023-05-10T11:51:08.036Z,18.1
2023-05-10T11:56:44.700Z,19.1
2023-05-10T12:02:24.526Z,18.5
2023-05-10T12:08:03.597Z,21.2
2023-05-10T12:13:41.000Z,22.5
2023-05-10T12:19:18.860Z,23.3
2023-05-10T12:24:55.789Z,20
2023-05-10T12:30:31.437Z,18.3
2023-05-10T12:36:05.789Z,16.4
2023-05-10T12:41:42.180Z,15.5
2023-05-10T12:47:18.836Z,17.2
2023-05-10T12:52:53.875Z,19
2023-05-10T12:58:35.402Z,22.8
2023-05-10T13:04:12.647Z,25.5
2023-05-10T13:10:02.267Z,22.5
2023-05-10T13:15:38.307Z,18.9
2023-05-10T13:21:13.684Z,17.8
2023-05-10T13:26:48.800Z,16.8
2023-05-10T13:32:23.515Z,16.9
2023-05-10T13:37:59.368Z,17.2
2023-05-10T13:43:34.675Z,18.9
2023-05-10T13:49:11.230Z,21.5
2023-05-10T13:54:47.470Z,24.1
2023-05-10T14:00:22.490Z,21.4
2023-05-10T14:05:59.041Z,17.9
2023-05-10T14:11:35.091Z,16.6
2023-05-10T14:17:12.316Z,17.3
2023-05-10T14:22:47.794Z,19.9
2023-05-10T14:28:23.190Z,32.4
2023-05-10T14:34:01.524Z,40.4
2023-05-10T14:39:37.486Z,39
2023-05-10T14:45:14.440Z,32.7
2023-05-10T14:50:51.952Z,36
2023-05-10T14:56:27.288Z,28.8
2023-05-10T15:02:03.011Z,39.7
2023-05-10T15:07:41.643Z,26.8
2023-05-10T15:13:16.628Z,29.1
2023-05-10T15:18:52.073Z,38
2023-05-10T15:24:29.035Z,35.9
2023-05-10T15:30:04.331Z,38.9
2023-05-10T15:35:59.356Z,34.6
2023-05-10T15:41:34.170Z,29.6
2023-05-10T15:47:08.787Z,24.4
2023-05-10T15:52:45.310Z,22.6
2023-05-10T15:58:21.774Z,22.5
2023-05-10T16:03:57.176Z,20.8
2023-05-10T16:09:35.665Z,19.3
2023-05-10T16:15:17.297Z,18.2
2023-05-10T16:20:55.578Z,18.5
2023-05-10T16:26:39.688Z,19.1
2023-05-10T16:32:18.180Z,22.2
2023-05-10T16:37:55.496Z,23.3
2023-05-10T16:43:32.061Z,22.8
2023-05-10T16:49:07.935Z,21.3
2023-05-10T16:54:43.014Z,21.4
2023-05-10T17:00:19.078Z,22.2
2023-05-10T17:05:55.348Z,19.6
2023-05-10T17:11:31.836Z,18.9
2023-05-10T17:17:08.672Z,17.3
2023-05-10T17:22:44.052Z,16.6
2023-05-10T17:28:19.628Z,16.1
2023-05-10T17:33:56.799Z,15.9
2023-05-10T17:39:34.267Z,16.2
2023-05-10T17:45:14.223Z,16.6
2023-05-10T17:50:52.543Z,16.6
2023-05-10T17:56:28.613Z,16.9
2023-05-10T18:02:06.710Z,16.5
2023-05-10T18:07:42.229Z,15.9
2023-05-10T18:13:18.762Z,15.1
2023-05-10T18:18:57.142Z,15.3
2023-05-10T18:24:38.799Z,15.5
2023-05-10T18:30:17.767Z,15.1
2023-05-10T18:35:55.046Z,14.8
2023-05-10T18:41:30.591Z,14.6
2023-05-10T18:47:05.796Z,14.3
2023-05-10T18:52:40.878Z,13.8
2023-05-10T18:58:20.673Z,13.7
2023-05-10T19:03:56.195Z,13.5
2023-05-10T19:09:31.995Z,13.3
2023-05-10T19:15:07.804Z,13.3
2023-05-10T19:20:44.282Z,13.1
2023-05-10T19:26:23.457Z,13
2023-05-10T19:31:59.888Z,13
2023-05-10T19:37:37.727Z,12.8
2023-05-10T19:43:14.409Z,12.9
2023-05-10T19:48:51.593Z,13
2023-05-10T19:54:27.324Z,12.9
2023-05-10T20:00:04.567Z,12.8
2023-05-10T20:05:40.940Z,13
2023-05-10T20:11:17.425Z,12.9
2023-05-10T20:16:53.156Z,12.9
2023-05-10T20:22:28.873Z,12.7
2023-05-10T20:28:05.098Z,12.7
2023-05-10T20:33:42.047Z,12.7
2023-05-10T20:39:18.102Z,12.6
2023-05-10T20:44:54.377Z,12.5
2023-05-10T20:50:30.546Z,12.3
2023-05-10T20:56:08.378Z,12.1
